AirNav   Air Wisconsin pilot careers
 
 859 users online  

N89 Joseph Y Resnick Airport
Ellenville, New York, USA

GOING TO ELLENVILLE?


FAA INFORMATION EFFECTIVE 06 DECEMBER 2018

Location

FAA Identifier: N89
Lat/Long: 41-43-40.3360N / 074-22-38.5530W
41-43.672267N / 074-22.642550W
41.7278711 / -74.3773758
(estimated)
Elevation: 292 ft. / 89 m (estimated)
Variation: 14W (2000)
From city: 1 mile NE of ELLENVILLE, NY
Time zone: UTC -5 (UTC -4 during Daylight Saving Time)
Zip code: 12458

Airport Operations

Airport use: Open to the public
Control tower: no
ARTCC: NEW YORK CENTER
FSS: NEW YORK FLIGHT SERVICE STATION
NOTAMs facility: ISP (NOTAM-D service available)
Attendance: 0800-DARK
Wind indicator: lighted
Segmented circle: yes
Lights: ACTIVATE REIL RY 04/22; MIRL RY 04/22 - CTAF.
Beacon: white-green (lighted land airport)
Operates sunset to sunrise.

Airport Communications

CTAF/UNICOM: 122.8
NEW YORK APPROACH: 132.75
NEW YORK DEPARTURE: 132.75
WX ASOS at MGJ (14 nm S): 119.275 (845-457-1486)
WX AWOS-3PT at MSV (19 nm W): 124.725 (845-583-5056)

Nearby radio navigation aids

VOR radial/distance  VOR name  Freq  Var
HUOr038/21.4HUGUENOT VOR/DME116.1011W
IGNr291/25.2KINGSTON VOR/DME117.6012W
PWLr278/34.9PAWLING VOR/DME114.3012W
DNYr147/37.4DELANCEY VOR/DME112.1011W

 
NDB name  Hdg/Dist  Freq  Var  ID
STANWYCK321/19.126112WSKU ... -.- ..-

Airport Services

Fuel available: 100LL
Parking: hangars and tiedowns
Airframe service: MINOR
Powerplant service: MINOR
Bottled oxygen: NONE
Bulk oxygen: NONE

Runway Information

Runway 4/22

Dimensions: 3838 x 75 ft. / 1170 x 23 m
Surface: asphalt, in good condition
Runway edge lights: medium intensity
RUNWAY 4  RUNWAY 22
Latitude: 41-43.468450N41-43.997717N
Longitude: 074-22.840050W074-22.378950W
Elevation: 289.7 ft.283.1 ft.
Traffic pattern: leftright
Runway heading: 047 magnetic, 033 true227 magnetic, 213 true
Displaced threshold: no300 ft.
Declared distances: TORA:3838 TODA:3838 ASDA:3838 LDA:3538TORA:3838 TODA:3838 ASDA:3838 LDA:3538
Markings: nonprecision, in good conditionnonprecision, in good condition
Visual slope indicator: 2-light PAPI on left
RY 04 PAPI OPERATE CONTINUOUSLY.
2-light PAPI on left
RY 22 PAPI OPERATE CONTINUOUSLY.
Runway end identifier lights: yesyes
Touchdown point: yes, no lightsyes, no lights
Obstructions: 75 ft. trees, 200 ft. from runway, 185 ft. left of centerline
+65 FT TREES, 0 FT DSTC FM RY THLD, 206 FT RIGHT.
8 ft. crops, 200 ft. from runway
RY 22 +35-55 FT TREES, 0-80 FT FROM RY THRESHOLD, 90-200 FT LEFT OF CNTRLN; -6 FT CREEK 0B 50 FT FROM THRESHOLD; +8 FT FENCE CROSSES RUNWAY 24 FT FROM THRESHOLD.

Airport Ownership and Management from official FAA records

Ownership: Publicly-owned
Owner: TOWN OF WAWARSING
108 CANAL STREET
ELLENVILLE, NY 12428
Phone 845-647-6570
Manager: ALFRED PERRY
199 AIRPORT RD
ELLENVILLE, NY 12428
Phone 845-647-8401

Airport Operational Statistics

Aircraft based on the field: 27
Single engine airplanes: 26
Multi engine airplanes: 1
    
Aircraft operations: avg 113/week *
85% local general aviation
14% transient general aviation
2% air taxi
* for 12-month period ending 24 May 2017

Additional Remarks

AVOID FLIGHT OVER SCHOOL & VILLAGE WHEN TAKING OFF RWY 22 OR APCH TO RWY 4, HELICOPTER OPNS FOLLOW FIXED WING FLIGHT PATTERN.
FOR CD CTC NY APCH AT 516-683-2448
AVOID OVERFLIGHT OF HOSPITAL & SCHOOL BUILDINGS APPROX 1 MILE SW OF RY 22 & PRISON APPROX 1/2 MILE NE OF ARPT.
RY 04 +60 FT TREES 200 FT FM RY, 191 RIGHT.
RY 22 +8 FT FENCE CROSSES RUNWAY, 24 FT FROM THRESHOLD
AWOS FREQUENCY 122.8 - 5 CLICKS.

Instrument Procedures

NOTE: All procedures below are presented as PDF files. If you need a reader for these files, you should download the free Adobe Reader.

NOT FOR NAVIGATION. Please procure official charts for flight.
FAA instrument procedures published for use from 6 December 2018 at 0901Z to 3 January 2019 at 0900Z.

 
IAPs - Instrument Approach Procedures
GPS RWY 04   download (150KB)
GPS RWY 22   download (163KB)
NOTE: Special Take-Off Minimums/Departure Procedures apply   download (150KB)

Other nearby airports with instrument procedures:

N82 - Wurtsboro-Sullivan County Airport (9 nm SW)
KMGJ - Orange County Airport (14 nm S)
06N - Randall Airport (18 nm S)
KSWF - Stewart International Airport (18 nm SE)
KMSV - Sullivan County International Airport (19 nm W)
 
Loc | Ops | Rwys | IFR | FBO | Links
Com | Nav | Svcs | Stats | Notes


 
Area around N89 (Joseph Y Resnick Airport)
 
Road maps at: MapQuest Bing Google
 
Aerial photo
WARNING: Photo may not be current or correct
Aerial photo of N89 (Joseph Y Resnick Airport)
Photo by Kevin Kupferschmid
Photo taken 13-Sep-2017
looking north-northeast.

Do you have a better or more recent aerial photo of Joseph Y Resnick Airport that you would like to share? If so, please send us your photo.

 
Sectional chart

 
Airport distance calculator
Flying to Joseph Y Resnick Airport? Find the distance to fly.

From to N89

Sunrise and sunset
Times for 12-Dec-2018
 Local
(UTC-5)
 Zulu
(UTC)
Morning civil twilight06:4511:45
Sunrise07:1612:16
Sunset16:2621:26
Evening civil twilight16:5821:58

Current date and time
Zulu (UTC)  13-Dec-2018 02:08:33
Local (UTC-5)  12-Dec-2018 21:08:33
 
METAR
KMGJ 
14nm S 
SuperAWOS
130154Z AUTO 00000KT 10SM CLR M05/M07 A3023 RMK AO2 SLP242 T10501067
KMSV 
18nm W 
130156Z AUTO 06005KT 10SM CLR M05/M07 A3017 RMK AO2 SLP237 T10501067 FZRANO
KSWF 
19nm SE 
130145Z 00000KT 10SM SCT040 M02/M05 A3023
KPOU 
23nm E 
130153Z AUTO 00000KT 10SM CLR M04/M08 A3024 RMK AO2 SLP238 T10441078
20N 
24nm NE 
SuperAWOS
130135Z AUTO 00000KT 10SM M02/M06 A3024
TAF
KSWF 
19nm SE 
130016Z 1300/1406 VRB03KT P6SM FEW035 BKN250 FM130900 VRB04KT P6SM BKN035 FM131200 10004KT 5SM -SN BR SCT020 OVC030 FM131400 08004KT 2SM -SN BR OVC010 FM132300 08003KT 3SM BR BKN005 OVC010 PROB30 1323/1403 2SM -FZDZ BR AMD NOT SKED
KPOU 
23nm E 
121726Z 1218/1318 36005KT P6SM BKN050 FM122200 VRB03KT P6SM SCT250 FM131200 10004KT P6SM VCSH OVC050
NOTAMs
Click for the latest NOTAMs
NOTAMs are issued by the DoD/FAA and will open in a separate window not controlled by AirNav.

 

 
 

FBO, Fuel Providers, and Aircraft Ground Support

  
 Business Name 
 
 Contact 
 
 Services / Description 
 
Fuel Prices
 
Comments
  
Town of Wawarsing 845-647-8401
no information available

If you are affiliated with Town of Wawarsing and would like to show here your services, contact info, web link, logo, and more, click here
100LL
SS $4.70 
 Updated 06-Dec-2018
 
   2 read write
SS=Self service
Update Fuel Prices
 

Would you like to see your business listed on this page?

 If your business provides an interesting product or service to pilots, flight crews, aircraft, or users of the Joseph Y Resnick Airport, you should consider listing it here.  To start the listing process, click on the button below
 
Add a business
 

Other Pages about Joseph Y Resnick Airport

Update a link
 
Copyright © AirNav, LLC. All rights reserved. Privacy Policy  Contact